createdAt,value
2019-02-01T00:03:59.767Z,99058.15
2019-02-01T00:08:08.591Z,99068.04
2019-02-01T00:12:16.573Z,99070.97
2019-02-01T00:16:24.561Z,99077.00
2019-02-01T00:20:32.650Z,99073.14
2019-02-01T00:24:40.546Z,99083.54
2019-02-01T00:28:48.529Z,99105.14
2019-02-01T00:32:56.537Z,99101.42
2019-02-01T00:37:04.524Z,99101.14
2019-02-01T00:41:12.424Z,99095.65
2019-02-01T00:45:20.112Z,99109.17
2019-02-01T00:49:27.713Z,99092.47
2019-02-01T00:53:35.498Z,99094.95
2019-02-01T00:57:43.191Z,99104.92
2019-02-01T01:01:51.272Z,99100.16
2019-02-01T01:06:00.359Z,99113.20
2019-02-01T01:10:10.442Z,99117.23
2019-02-01T01:14:18.450Z,99135.98
2019-02-01T01:18:26.450Z,99150.46
2019-02-01T01:22:34.540Z,99165.25
2019-02-01T01:26:42.313Z,99172.17
2019-02-01T01:30:50.269Z,99172.95
2019-02-01T01:34:58.249Z,99182.56
2019-02-01T01:39:08.699Z,99189.74
2019-02-01T01:43:17.053Z,99192.52
2019-02-01T01:47:25.033Z,99196.63
2019-02-01T01:51:33.131Z,99197.53
2019-02-01T01:55:41.231Z,99200.66
2019-02-01T01:59:49.230Z,99192.98
2019-02-01T02:03:57.262Z,99197.22
2019-02-01T02:08:06.049Z,99205.09
2019-02-01T02:12:14.156Z,99212.81
2019-02-01T02:16:21.855Z,99209.53
2019-02-01T02:20:29.756Z,99219.55
2019-02-01T02:24:37.453Z,99220.15
2019-02-01T02:28:45.817Z,99225.86
2019-02-01T02:32:54.257Z,99236.38
2019-02-01T02:37:02.381Z,99244.44
2019-02-01T02:41:11.377Z,99242.69
2019-02-01T02:45:19.786Z,99252.53
2019-02-01T02:49:27.877Z,99258.54
2019-02-01T02:53:35.869Z,99268.17
2019-02-01T02:57:43.777Z,99270.81
2019-02-01T03:01:51.289Z,99285.16
2019-02-01T03:05:59.292Z,99289.72
2019-02-01T03:10:07.895Z,99290.03
2019-02-01T03:14:15.793Z,99302.80
2019-02-01T03:18:23.696Z,99303.02
2019-02-01T03:22:31.712Z,99315.89
2019-02-01T03:26:39.720Z,99330.08
2019-02-01T03:30:47.716Z,99338.16
2019-02-01T03:34:58.006Z,99337.91
2019-02-01T03:39:07.783Z,99344.23
2019-02-01T03:43:15.715Z,99343.47
2019-02-01T03:47:23.808Z,99363.04
2019-02-01T03:51:31.833Z,99357.31
2019-02-01T03:55:39.731Z,99366.59
2019-02-01T03:59:47.747Z,99374.70
2019-02-01T04:03:55.755Z,99368.86
2019-02-01T04:08:04.853Z,99366.44
2019-02-01T04:12:12.844Z,99362.34
2019-02-01T04:16:22.160Z,99376.87
2019-02-01T04:20:29.948Z,99384.30
2019-02-01T04:24:37.941Z,99382.51
2019-02-01T04:28:45.657Z,99390.03
2019-02-01T04:32:54.164Z,99399.28
2019-02-01T04:37:02.187Z,99400.03
2019-02-01T04:41:09.917Z,99407.71
2019-02-01T04:45:23.397Z,99409.95
2019-02-01T04:49:30.905Z,99410.92
2019-02-01T04:53:38.998Z,99428.00
2019-02-01T04:57:46.989Z,99428.87
2019-02-01T05:01:54.965Z,99429.50
2019-02-01T05:06:02.675Z,99437.77
2019-02-01T05:10:12.196Z,99443.81
2019-02-01T05:14:19.898Z,99447.66
2019-02-01T05:18:27.419Z,99456.84
2019-02-01T05:22:35.823Z,99452.53
2019-02-01T05:26:43.834Z,99459.27
2019-02-01T05:30:52.012Z,99473.09
2019-02-01T05:35:00.041Z,99478.03
2019-02-01T05:39:09.950Z,99489.77
2019-02-01T05:43:17.879Z,99479.12
2019-02-01T05:47:25.773Z,99484.77
2019-02-01T05:51:33.683Z,99490.88
2019-02-01T05:55:41.667Z,99499.56
2019-02-01T05:59:49.589Z,99509.89
2019-02-01T06:03:57.646Z,99521.55
2019-02-01T06:08:05.563Z,99533.20
2019-02-01T06:12:13.667Z,99544.86
2019-02-01T06:16:22.139Z,99555.78
2019-02-01T06:20:39.842Z,99563.94
2019-02-01T06:24:40.644Z,99574.39
2019-02-01T06:28:48.635Z,99594.70
2019-02-01T06:32:56.732Z,99609.58
2019-02-01T06:37:04.727Z,99605.34
2019-02-01T06:41:13.136Z,99617.43
2019-02-01T06:45:21.246Z,99626.33
2019-02-01T06:49:28.866Z,99632.10
2019-02-01T06:53:36.847Z,99628.91
2019-02-01T06:57:44.808Z,99651.61
2019-02-01T07:01:52.939Z,99651.83
2019-02-01T07:06:00.496Z,99645.45
2019-02-01T07:10:39.254Z,99656.50
2019-02-01T07:15:12.634Z,99652.59
2019-02-01T07:19:31.730Z,99662.22
2019-02-01T07:23:57.290Z,99662.38
2019-02-01T07:28:39.274Z,99667.77
2019-02-01T07:33:09.057Z,99665.52
2019-02-01T07:37:16.893Z,99660.37
2019-02-01T07:41:25.021Z,99671.41
2019-02-01T07:45:32.850Z,99673.37
2019-02-01T07:49:40.595Z,99676.45
2019-02-01T07:53:48.435Z,99678.52
2019-02-01T07:57:56.459Z,99677.55
2019-02-01T08:02:04.597Z,99676.50
2019-02-01T08:06:12.723Z,99676.20
2019-02-01T08:10:20.361Z,99682.18
2019-02-01T08:14:30.589Z,99698.84
2019-02-01T08:18:37.898Z,99691.72
2019-02-01T08:22:45.831Z,99698.06
2019-02-01T08:26:53.928Z,99706.05
2019-02-01T08:31:01.644Z,99714.27
2019-02-01T08:35:11.984Z,99724.97
2019-02-01T08:39:19.926Z,99727.85
2019-02-01T08:43:28.566Z,99732.59
2019-02-01T08:47:36.683Z,99739.83
2019-02-01T08:51:44.405Z,99744.34
2019-02-01T08:55:52.345Z,99748.16
2019-02-01T09:00:00.139Z,99764.23
2019-02-01T09:04:08.744Z,99765.88
2019-02-01T09:08:16.883Z,99770.73
2019-02-01T09:12:24.767Z,99788.75
2019-02-01T09:16:32.428Z,99784.98
2019-02-01T09:20:40.327Z,99783.73
2019-02-01T09:24:48.139Z,99797.97
2019-02-01T09:28:56.173Z,99797.57
2019-02-01T09:33:04.289Z,99803.02
2019-02-01T09:37:11.995Z,99798.73
2019-02-01T09:41:20.148Z,99797.37
2019-02-01T09:45:28.292Z,99799.09
2019-02-01T09:49:35.909Z,99794.84
2019-02-01T09:53:43.726Z,99799.19
2019-02-01T09:57:52.096Z,99791.82
2019-02-01T10:02:00.119Z,99796.81
2019-02-01T10:06:07.880Z,99797.45
2019-02-01T10:10:17.494Z,99804.76
2019-02-01T10:14:25.472Z,99807.50
2019-02-01T10:18:33.415Z,99801.22
2019-02-01T10:22:41.521Z,99800.34
2019-02-01T10:26:49.523Z,99796.58
2019-02-01T10:30:57.269Z,99786.97
2019-02-01T10:35:05.519Z,99796.44
2019-02-01T10:39:13.427Z,99791.04
2019-02-01T10:43:21.150Z,99799.02
2019-02-01T10:47:28.903Z,99795.92
2019-02-01T10:51:36.964Z,99789.02
2019-02-01T10:55:46.066Z,99801.11
2019-02-01T10:59:54.189Z,99798.80
2019-02-01T11:04:02.320Z,99794.25
2019-02-01T11:08:10.151Z,99792.75
2019-02-01T11:12:18.134Z,99782.86
2019-02-01T11:16:27.281Z,99782.02
2019-02-01T11:20:35.156Z,99779.50
2019-02-01T11:24:43.203Z,99784.85
2019-02-01T11:28:51.012Z,99779.61
2019-02-01T11:32:58.758Z,99786.88
2019-02-01T11:37:06.929Z,99779.86
2019-02-01T11:41:14.835Z,99786.41
2019-02-01T11:45:22.996Z,99783.73
2019-02-01T11:49:30.643Z,99784.52
2019-02-01T11:53:38.756Z,99783.38
2019-02-01T11:57:46.983Z,99786.52
2019-02-01T12:01:54.594Z,99790.25
2019-02-01T12:06:02.311Z,99789.05
2019-02-01T12:10:16.611Z,99789.78
2019-02-01T12:14:24.138Z,99783.53
2019-02-01T12:18:31.863Z,99778.60
2019-02-01T12:22:39.664Z,99782.40
2019-02-01T12:26:47.583Z,99787.00
2019-02-01T12:30:55.616Z,99777.80
2019-02-01T12:35:03.787Z,99781.58
2019-02-01T12:39:11.496Z,99788.41
2019-02-01T12:43:19.009Z,99790.59
2019-02-01T12:47:26.749Z,99782.63
2019-02-01T12:51:34.844Z,99794.78
2019-02-01T12:55:43.044Z,99790.39
2019-02-01T12:59:50.754Z,99801.46
2019-02-01T13:03:58.830Z,99802.69
2019-02-01T13:08:08.323Z,99800.22
2019-02-01T13:12:16.534Z,99815.60
2019-02-01T13:16:24.474Z,99811.13
2019-02-01T13:20:32.299Z,99815.14
2019-02-01T13:24:45.290Z,99815.63
2019-02-01T13:28:49.627Z,99813.16
2019-02-01T13:32:58.137Z,99814.15
2019-02-01T13:37:06.171Z,99818.67
2019-02-01T13:41:13.892Z,99816.66
2019-02-01T13:45:21.722Z,99819.19
2019-02-01T13:49:29.451Z,99823.69
2019-02-01T13:53:37.933Z,99829.53
2019-02-01T13:57:46.063Z,99833.55
2019-02-01T14:01:54.600Z,99848.42
2019-02-01T14:06:02.688Z,99853.45
2019-02-01T14:10:14.105Z,99866.61
2019-02-01T14:14:22.310Z,99876.58
2019-02-01T14:18:32.059Z,99881.68
2019-02-01T14:22:39.766Z,99883.14
2019-02-01T14:26:47.535Z,99885.64
2019-02-01T14:30:55.424Z,99886.55
2019-02-01T14:35:03.231Z,99887.35
2019-02-01T14:39:11.362Z,99890.30
2019-02-01T14:43:19.171Z,99891.79
2019-02-01T14:47:26.791Z,99893.91
2019-02-01T14:51:34.629Z,99904.03
2019-02-01T14:55:42.577Z,99897.70
2019-02-01T14:59:50.266Z,99906.81
2019-02-01T15:03:57.970Z,99911.12
2019-02-01T15:08:06.235Z,99913.38
2019-02-01T15:12:14.453Z,99919.82
2019-02-01T15:16:37.525Z,99930.09
2019-02-01T15:20:33.218Z,99935.76
2019-02-01T15:24:41.315Z,99934.92
2019-02-01T15:28:49.241Z,99941.56
2019-02-01T15:32:57.329Z,99940.60
2019-02-01T15:37:05.446Z,99949.09
2019-02-01T15:41:13.421Z,99945.70
2019-02-01T15:45:21.537Z,99952.33
2019-02-01T15:49:29.274Z,99963.48
2019-02-01T15:53:37.396Z,99955.77
2019-02-01T15:57:45.683Z,99957.13
2019-02-01T16:01:53.881Z,99957.88
2019-02-01T16:06:01.885Z,99959.51
2019-02-01T16:10:11.592Z,99962.03
2019-02-01T16:14:19.932Z,99972.12
2019-02-01T16:18:28.085Z,99971.54
2019-02-01T16:22:36.389Z,99969.84
2019-02-01T16:26:44.600Z,99963.16
2019-02-01T16:30:52.476Z,99964.52
2019-02-01T16:35:00.636Z,99958.95
2019-02-01T16:39:10.078Z,99965.79
2019-02-01T16:43:18.308Z,99971.00
2019-02-01T16:47:26.298Z,99978.87
2019-02-01T16:51:34.603Z,99982.95
2019-02-01T16:55:42.648Z,99984.61
2019-02-01T16:59:50.643Z,99997.77
2019-02-01T17:03:58.421Z,100010.43
2019-02-01T17:08:08.608Z,100011.62
2019-02-01T17:12:16.226Z,100010.73
2019-02-01T17:16:24.266Z,100013.06
2019-02-01T17:20:33.805Z,100008.55
2019-02-01T17:24:41.822Z,100011.03
2019-02-01T17:28:49.567Z,100011.30
2019-02-01T17:32:58.494Z,100021.66
2019-02-01T17:37:06.351Z,100018.90
2019-02-01T17:41:13.997Z,100024.05
2019-02-01T17:45:22.169Z,100017.70
2019-02-01T17:49:31.394Z,100014.45
2019-02-01T17:53:39.502Z,100014.66
2019-02-01T17:57:47.129Z,100016.98
2019-02-01T18:01:55.094Z,100023.77
2019-02-01T18:06:03.268Z,100014.84
2019-02-01T18:10:12.611Z,100024.19
2019-02-01T18:14:21.596Z,100024.14
2019-02-01T18:18:29.772Z,100027.48
2019-02-01T18:22:44.427Z,100037.52
2019-02-01T18:26:54.617Z,100040.04
2019-02-01T18:31:02.926Z,100054.45
2019-02-01T18:35:10.702Z,100050.73
2019-02-01T18:39:18.750Z,100063.27
2019-02-01T18:43:26.706Z,100065.30
2019-02-01T18:47:36.224Z,100072.66
2019-02-01T18:51:44.493Z,100071.67
2019-02-01T18:55:54.597Z,100071.05
2019-02-01T19:00:02.350Z,100070.48
2019-02-01T19:04:11.373Z,100074.68
2019-02-01T19:08:19.433Z,100075.89
2019-02-01T19:12:27.305Z,100073.02
2019-02-01T19:16:35.228Z,100078.41
2019-02-01T19:20:43.356Z,100072.14
2019-02-01T19:24:51.394Z,100079.56
2019-02-01T19:28:59.551Z,100085.19
2019-02-01T19:33:08.327Z,100076.59
2019-02-01T19:37:16.473Z,100084.03
2019-02-01T19:41:24.629Z,100081.72
2019-02-01T19:45:32.979Z,100088.59
2019-02-01T19:49:41.647Z,100086.15
2019-02-01T19:53:49.792Z,100093.94
2019-02-01T19:57:57.765Z,100089.09
2019-02-01T20:02:06.051Z,100094.37
2019-02-01T20:06:13.911Z,100095.30
2019-02-01T20:10:24.145Z,100099.58
2019-02-01T20:14:33.262Z,100095.58
2019-02-01T20:18:41.126Z,100093.66
2019-02-01T20:22:49.180Z,100101.02
2019-02-01T20:26:57.308Z,100099.09
2019-02-01T20:31:05.540Z,100102.45
2019-02-01T20:35:14.627Z,100094.87
2019-02-01T20:39:22.785Z,100093.80
2019-02-01T20:43:31.092Z,100092.19
2019-02-01T20:47:41.616Z,100094.81
2019-02-01T20:51:49.694Z,100098.64
2019-02-01T20:55:57.976Z,100089.08
2019-02-01T21:00:11.244Z,100092.69
2019-02-01T21:04:19.417Z,100093.91
2019-02-01T21:08:27.826Z,100088.31
2019-02-01T21:12:36.065Z,100085.16
2019-02-01T21:16:44.130Z,100084.70
2019-02-01T21:20:52.065Z,100081.56
2019-02-01T21:25:00.306Z,100081.96
2019-02-01T21:29:08.434Z,100086.62
2019-02-01T21:33:16.553Z,100090.52
2019-02-01T21:37:24.711Z,100100.29
2019-02-01T21:41:33.116Z,100097.30
2019-02-01T21:45:42.915Z,100090.50
2019-02-01T21:49:50.817Z,100092.66
2019-02-01T21:53:58.952Z,100082.98
2019-02-01T21:58:07.408Z,100078.02
2019-02-01T22:02:15.527Z,100084.36
2019-02-01T22:06:23.576Z,100084.38
2019-02-01T22:10:32.873Z,100082.92
2019-02-01T22:14:41.047Z,100080.52
2019-02-01T22:18:48.689Z,100070.13
2019-02-01T22:22:56.821Z,100071.52
2019-02-01T22:27:05.168Z,100064.07
2019-02-01T22:31:12.995Z,100059.70
2019-02-01T22:35:22.355Z,100057.32
2019-02-01T22:39:30.539Z,100061.17
2019-02-01T22:43:38.665Z,100051.52
2019-02-01T22:47:46.618Z,100058.63
2019-02-01T22:51:54.710Z,100057.60
2019-02-01T22:56:02.419Z,100061.22
2019-02-01T23:01:25.079Z,100071.39
2019-02-01T23:05:33.141Z,100068.86
2019-02-01T23:09:41.155Z,100063.06
2019-02-01T23:13:49.214Z,100071.09
2019-02-01T23:17:58.622Z,100061.14
2019-02-01T23:22:12.447Z,100055.22
2019-02-01T23:26:25.274Z,100058.34
2019-02-01T23:30:35.883Z,100061.55
2019-02-01T23:34:45.857Z,100063.97
2019-02-01T23:38:53.799Z,100052.10
2019-02-01T23:43:12.885Z,100056.22
2019-02-01T23:47:24.943Z,100056.95
2019-02-01T23:51:42.024Z,100066.21
2019-02-01T23:55:58.698Z,100060.23
